sensor_id;sensor_type;location;lat;lon;timestamp;temperature;humidity
80234;DHT22;69712;42.142;24.766;2023-07-31T00:01:18;26.10;35.20
80234;DHT22;69712;42.142;24.766;2023-07-31T00:03:43;26.20;35.10
80234;DHT22;69712;42.142;24.766;2023-07-31T00:06:09;26.30;35.10
80234;DHT22;69712;42.142;24.766;2023-07-31T00:08:35;26.20;35.10
80234;DHT22;69712;42.142;24.766;2023-07-31T00:11:19;26.30;34.90
80234;DHT22;69712;42.142;24.766;2023-07-31T00:13:45;26.40;34.80
80234;DHT22;69712;42.142;24.766;2023-07-31T00:16:10;26.30;34.70
80234;DHT22;69712;42.142;24.766;2023-07-31T00:18:36;26.40;34.80
80234;DHT22;69712;42.142;24.766;2023-07-31T00:21:02;26.40;34.70
80234;DHT22;69712;42.142;24.766;2023-07-31T00:23:27;26.40;34.90
80234;DHT22;69712;42.142;24.766;2023-07-31T00:25:53;26.40;34.80
80234;DHT22;69712;42.142;24.766;2023-07-31T00:28:19;26.30;34.80
80234;DHT22;69712;42.142;24.766;2023-07-31T00:30:44;26.50;35.10
80234;DHT22;69712;42.142;24.766;2023-07-31T00:33:10;26.50;35.00
80234;DHT22;69712;42.142;24.766;2023-07-31T00:35:36;26.40;35.00
80234;DHT22;69712;42.142;24.766;2023-07-31T00:38:01;26.40;34.80
80234;DHT22;69712;42.142;24.766;2023-07-31T00:40:27;26.50;34.70
80234;DHT22;69712;42.142;24.766;2023-07-31T00:42:53;26.50;35.00
80234;DHT22;69712;42.142;24.766;2023-07-31T00:45:19;26.20;35.70
80234;DHT22;69712;42.142;24.766;2023-07-31T00:47:44;26.10;36.20
80234;DHT22;69712;42.142;24.766;2023-07-31T00:50:10;25.80;36.50
80234;DHT22;69712;42.142;24.766;2023-07-31T00:52:36;25.90;36.30
80234;DHT22;69712;42.142;24.766;2023-07-31T00:55:03;26.00;36.30
80234;DHT22;69712;42.142;24.766;2023-07-31T00:57:29;26.00;36.30
80234;DHT22;69712;42.142;24.766;2023-07-31T00:59:55;26.10;36.10
80234;DHT22;69712;42.142;24.766;2023-07-31T01:02:21;26.10;36.30
80234;DHT22;69712;42.142;24.766;2023-07-31T01:04:47;25.90;36.60
80234;DHT22;69712;42.142;24.766;2023-07-31T01:07:31;25.60;37.30
80234;DHT22;69712;42.142;24.766;2023-07-31T01:10:33;25.30;38.00
80234;DHT22;69712;42.142;24.766;2023-07-31T01:12:51;25.30;38.00
80234;DHT22;69712;42.142;24.766;2023-07-31T01:15:17;25.50;37.80
80234;DHT22;69712;42.142;24.766;2023-07-31T01:17:43;25.40;37.70
80234;DHT22;69712;42.142;24.766;2023-07-31T01:20:21;25.50;37.50
80234;DHT22;69712;42.142;24.766;2023-07-31T01:28:11;25.50;37.50
80234;DHT22;69712;42.142;24.766;2023-07-31T01:30:43;25.60;36.90
80234;DHT22;69712;42.142;24.766;2023-07-31T01:33:10;25.90;36.50
80234;DHT22;69712;42.142;24.766;2023-07-31T01:35:37;26.00;36.20
80234;DHT22;69712;42.142;24.766;2023-07-31T01:38:04;26.20;36.00
80234;DHT22;69712;42.142;24.766;2023-07-31T01:40:30;26.30;35.90
80234;DHT22;69712;42.142;24.766;2023-07-31T01:43:10;26.20;36.30
80234;DHT22;69712;42.142;24.766;2023-07-31T01:45:39;26.00;36.20
80234;DHT22;69712;42.142;24.766;2023-07-31T01:48:04;25.90;36.30
80234;DHT22;69712;42.142;24.766;2023-07-31T01:50:30;25.90;36.50
80234;DHT22;69712;42.142;24.766;2023-07-31T01:52:56;26.10;36.10
80234;DHT22;69712;42.142;24.766;2023-07-31T01:55:21;26.10;35.80
80234;DHT22;69712;42.142;24.766;2023-07-31T01:57:47;26.20;35.80
80234;DHT22;69712;42.142;24.766;2023-07-31T02:00:14;26.30;36.00
80234;DHT22;69712;42.142;24.766;2023-07-31T02:02:39;26.20;35.70
80234;DHT22;69712;42.142;24.766;2023-07-31T02:05:05;26.20;36.10
80234;DHT22;69712;42.142;24.766;2023-07-31T02:07:31;26.10;36.00
80234;DHT22;69712;42.142;24.766;2023-07-31T02:09:57;26.00;36.00
80234;DHT22;69712;42.142;24.766;2023-07-31T02:12:22;25.90;36.00
80234;DHT22;69712;42.142;24.766;2023-07-31T02:14:48;26.00;36.40
80234;DHT22;69712;42.142;24.766;2023-07-31T02:17:14;26.00;36.40
80234;DHT22;69712;42.142;24.766;2023-07-31T02:19:40;25.90;36.20
80234;DHT22;69712;42.142;24.766;2023-07-31T02:22:06;26.00;36.50
80234;DHT22;69712;42.142;24.766;2023-07-31T02:24:31;25.90;36.20
80234;DHT22;69712;42.142;24.766;2023-07-31T02:26:57;25.80;36.70
80234;DHT22;69712;42.142;24.766;2023-07-31T02:29:23;25.70;36.90
80234;DHT22;69712;42.142;24.766;2023-07-31T02:31:48;25.60;38.00
80234;DHT22;69712;42.142;24.766;2023-07-31T02:34:14;25.60;38.40
80234;DHT22;69712;42.142;24.766;2023-07-31T02:36:40;25.60;38.80
80234;DHT22;69712;42.142;24.766;2023-07-31T02:39:05;25.60;38.90
80234;DHT22;69712;42.142;24.766;2023-07-31T02:41:31;25.70;39.20
80234;DHT22;69712;42.142;24.766;2023-07-31T02:43:57;25.80;39.30
80234;DHT22;69712;42.142;24.766;2023-07-31T02:46:22;25.80;40.70
80234;DHT22;69712;42.142;24.766;2023-07-31T02:48:50;25.80;41.70
80234;DHT22;69712;42.142;24.766;2023-07-31T02:51:16;25.70;42.10
80234;DHT22;69712;42.142;24.766;2023-07-31T02:53:42;25.80;42.00
80234;DHT22;69712;42.142;24.766;2023-07-31T02:56:08;25.90;42.30
80234;DHT22;69712;42.142;24.766;2023-07-31T02:58:33;25.90;43.10
80234;DHT22;69712;42.142;24.766;2023-07-31T03:00:59;25.80;43.90
80234;DHT22;69712;42.142;24.766;2023-07-31T03:03:25;25.70;44.10
80234;DHT22;69712;42.142;24.766;2023-07-31T03:05:50;25.70;44.90
80234;DHT22;69712;42.142;24.766;2023-07-31T03:08:16;25.80;45.30
80234;DHT22;69712;42.142;24.766;2023-07-31T03:10:42;25.60;45.40
80234;DHT22;69712;42.142;24.766;2023-07-31T03:13:07;25.60;45.70
80234;DHT22;69712;42.142;24.766;2023-07-31T03:15:33;25.60;46.20
80234;DHT22;69712;42.142;24.766;2023-07-31T03:17:59;25.60;46.60
80234;DHT22;69712;42.142;24.766;2023-07-31T03:20:24;25.60;47.20
80234;DHT22;69712;42.142;24.766;2023-07-31T03:22:50;25.60;47.90
80234;DHT22;69712;42.142;24.766;2023-07-31T03:25:16;25.40;50.00
80234;DHT22;69712;42.142;24.766;2023-07-31T03:27:41;25.30;52.40
80234;DHT22;69712;42.142;24.766;2023-07-31T03:30:07;25.00;53.70
80234;DHT22;69712;42.142;24.766;2023-07-31T03:32:33;24.90;55.20
80234;DHT22;69712;42.142;24.766;2023-07-31T03:34:59;24.70;56.40
80234;DHT22;69712;42.142;24.766;2023-07-31T03:37:25;24.70;57.60
80234;DHT22;69712;42.142;24.766;2023-07-31T03:39:51;24.70;57.80
80234;DHT22;69712;42.142;24.766;2023-07-31T03:42:17;24.60;59.00
80234;DHT22;69712;42.142;24.766;2023-07-31T03:44:43;24.50;59.20
80234;DHT22;69712;42.142;24.766;2023-07-31T03:47:08;24.40;60.20
80234;DHT22;69712;42.142;24.766;2023-07-31T03:49:34;24.50;59.60
80234;DHT22;69712;42.142;24.766;2023-07-31T03:52:00;24.50;59.80
80234;DHT22;69712;42.142;24.766;2023-07-31T03:54:25;24.50;58.70
80234;DHT22;69712;42.142;24.766;2023-07-31T03:56:51;24.30;59.40
80234;DHT22;69712;42.142;24.766;2023-07-31T03:59:17;24.10;60.30
80234;DHT22;69712;42.142;24.766;2023-07-31T04:01:42;24.00;61.00
80234;DHT22;69712;42.142;24.766;2023-07-31T04:04:08;23.80;61.80
80234;DHT22;69712;42.142;24.766;2023-07-31T04:06:33;23.60;61.90
80234;DHT22;69712;42.142;24.766;2023-07-31T04:08:59;23.60;61.80
80234;DHT22;69712;42.142;24.766;2023-07-31T04:11:25;23.50;62.70
80234;DHT22;69712;42.142;24.766;2023-07-31T04:13:50;23.60;63.00
80234;DHT22;69712;42.142;24.766;2023-07-31T04:16:16;23.70;63.40
80234;DHT22;69712;42.142;24.766;2023-07-31T04:18:42;23.70;62.20
80234;DHT22;69712;42.142;24.766;2023-07-31T04:21:07;23.70;61.40
80234;DHT22;69712;42.142;24.766;2023-07-31T04:23:33;23.60;62.60
80234;DHT22;69712;42.142;24.766;2023-07-31T04:25:59;23.70;62.90
80234;DHT22;69712;42.142;24.766;2023-07-31T04:28:24;23.50;62.20
80234;DHT22;69712;42.142;24.766;2023-07-31T04:30:51;23.70;63.20
80234;DHT22;69712;42.142;24.766;2023-07-31T04:33:17;23.70;63.00
80234;DHT22;69712;42.142;24.766;2023-07-31T04:35:52;23.70;63.60
80234;DHT22;69712;42.142;24.766;2023-07-31T04:38:19;23.80;63.10
80234;DHT22;69712;42.142;24.766;2023-07-31T04:40:45;23.80;62.30
80234;DHT22;69712;42.142;24.766;2023-07-31T04:43:11;23.80;61.10
80234;DHT22;69712;42.142;24.766;2023-07-31T04:45:36;23.80;61.30
80234;DHT22;69712;42.142;24.766;2023-07-31T04:48:02;23.80;61.90
80234;DHT22;69712;42.142;24.766;2023-07-31T04:50:28;23.80;61.70
80234;DHT22;69712;42.142;24.766;2023-07-31T04:52:55;23.80;62.50
80234;DHT22;69712;42.142;24.766;2023-07-31T04:55:21;23.80;61.70
80234;DHT22;69712;42.142;24.766;2023-07-31T04:57:47;23.80;61.50
80234;DHT22;69712;42.142;24.766;2023-07-31T05:00:13;23.90;61.20
80234;DHT22;69712;42.142;24.766;2023-07-31T05:02:38;24.00;61.20
80234;DHT22;69712;42.142;24.766;2023-07-31T05:05:04;24.00;60.30
80234;DHT22;69712;42.142;24.766;2023-07-31T05:07:30;24.10;60.20
80234;DHT22;69712;42.142;24.766;2023-07-31T05:09:56;24.10;60.20
80234;DHT22;69712;42.142;24.766;2023-07-31T05:12:21;24.20;61.40
80234;DHT22;69712;42.142;24.766;2023-07-31T05:14:47;24.40;60.50
80234;DHT22;69712;42.142;24.766;2023-07-31T05:17:30;24.50;59.60
80234;DHT22;69712;42.142;24.766;2023-07-31T05:20:05;24.60;59.40
80234;DHT22;69712;42.142;24.766;2023-07-31T05:22:31;24.60;59.90
80234;DHT22;69712;42.142;24.766;2023-07-31T05:24:57;24.70;58.30
80234;DHT22;69712;42.142;24.766;2023-07-31T05:27:22;24.70;59.60
80234;DHT22;69712;42.142;24.766;2023-07-31T05:29:48;24.70;57.50
80234;DHT22;69712;42.142;24.766;2023-07-31T05:32:14;24.90;58.10
80234;DHT22;69712;42.142;24.766;2023-07-31T05:34:40;24.90;57.80
80234;DHT22;69712;42.142;24.766;2023-07-31T05:37:05;25.00;56.30
80234;DHT22;69712;42.142;24.766;2023-07-31T05:39:31;25.00;56.70
80234;DHT22;69712;42.142;24.766;2023-07-31T05:41:57;25.10;55.40
80234;DHT22;69712;42.142;24.766;2023-07-31T05:44:23;25.10;54.80
80234;DHT22;69712;42.142;24.766;2023-07-31T05:46:48;25.20;54.40
80234;DHT22;69712;42.142;24.766;2023-07-31T05:52:33;24.90;55.60
80234;DHT22;69712;42.142;24.766;2023-07-31T05:54:59;25.10;54.80
80234;DHT22;69712;42.142;24.766;2023-07-31T05:57:25;25.00;54.80
80234;DHT22;69712;42.142;24.766;2023-07-31T05:59:51;25.00;54.90
80234;DHT22;69712;42.142;24.766;2023-07-31T06:02:16;25.20;54.70
80234;DHT22;69712;42.142;24.766;2023-07-31T06:04:42;25.30;53.30
80234;DHT22;69712;42.142;24.766;2023-07-31T06:07:08;25.20;54.20
80234;DHT22;69712;42.142;24.766;2023-07-31T06:09:33;25.40;54.40
80234;DHT22;69712;42.142;24.766;2023-07-31T06:11:59;25.60;54.20
80234;DHT22;69712;42.142;24.766;2023-07-31T06:14:25;25.80;53.70
80234;DHT22;69712;42.142;24.766;2023-07-31T06:16:50;25.90;52.80
80234;DHT22;69712;42.142;24.766;2023-07-31T06:19:16;26.30;52.00
80234;DHT22;69712;42.142;24.766;2023-07-31T06:21:42;26.40;51.50
80234;DHT22;69712;42.142;24.766;2023-07-31T06:24:09;26.60;49.90
80234;DHT22;69712;42.142;24.766;2023-07-31T06:26:35;26.80;49.50
80234;DHT22;69712;42.142;24.766;2023-07-31T06:29:00;27.20;48.70
80234;DHT22;69712;42.142;24.766;2023-07-31T06:31:26;28.60;46.80
80234;DHT22;69712;42.142;24.766;2023-07-31T06:33:52;29.10;44.20
80234;DHT22;69712;42.142;24.766;2023-07-31T06:36:18;30.50;41.90
80234;DHT22;69712;42.142;24.766;2023-07-31T06:38:44;32.10;39.00
80234;DHT22;69712;42.142;24.766;2023-07-31T06:41:10;32.60;37.40
80234;DHT22;69712;42.142;24.766;2023-07-31T06:43:36;32.90;36.00
80234;DHT22;69712;42.142;24.766;2023-07-31T06:46:08;33.50;35.10
80234;DHT22;69712;42.142;24.766;2023-07-31T06:48:34;33.50;35.20
80234;DHT22;69712;42.142;24.766;2023-07-31T06:51:00;33.90;34.80
80234;DHT22;69712;42.142;24.766;2023-07-31T06:53:26;34.80;32.90
80234;DHT22;69712;42.142;24.766;2023-07-31T06:55:52;35.60;32.30
80234;DHT22;69712;42.142;24.766;2023-07-31T06:58:18;35.60;31.60
80234;DHT22;69712;42.142;24.766;2023-07-31T07:00:44;36.90;30.40
80234;DHT22;69712;42.142;24.766;2023-07-31T07:03:09;36.80;29.50
80234;DHT22;69712;42.142;24.766;2023-07-31T07:05:35;37.00;29.40
80234;DHT22;69712;42.142;24.766;2023-07-31T07:08:27;36.70;29.30
80234;DHT22;69712;42.142;24.766;2023-07-31T07:11:09;36.30;29.50
80234;DHT22;69712;42.142;24.766;2023-07-31T07:13:36;36.50;29.70
80234;DHT22;69712;42.142;24.766;2023-07-31T07:16:02;37.40;28.90
80234;DHT22;69712;42.142;24.766;2023-07-31T07:18:28;37.50;28.50
80234;DHT22;69712;42.142;24.766;2023-07-31T07:20:54;37.30;28.60
80234;DHT22;69712;42.142;24.766;2023-07-31T07:23:20;37.70;28.10
80234;DHT22;69712;42.142;24.766;2023-07-31T07:25:47;37.90;27.90
80234;DHT22;69712;42.142;24.766;2023-07-31T07:28:13;37.80;28.20
80234;DHT22;69712;42.142;24.766;2023-07-31T07:30:39;37.10;28.70
80234;DHT22;69712;42.142;24.766;2023-07-31T07:33:05;37.20;29.20
80234;DHT22;69712;42.142;24.766;2023-07-31T07:35:33;37.50;28.30
80234;DHT22;69712;42.142;24.766;2023-07-31T07:38:01;38.00;27.90
80234;DHT22;69712;42.142;24.766;2023-07-31T07:40:26;38.30;27.10
80234;DHT22;69712;42.142;24.766;2023-07-31T07:42:52;37.00;28.60
80234;DHT22;69712;42.142;24.766;2023-07-31T07:45:18;35.70;30.00
80234;DHT22;69712;42.142;24.766;2023-07-31T07:47:43;35.80;31.40
80234;DHT22;69712;42.142;24.766;2023-07-31T07:50:09;35.20;31.20
80234;DHT22;69712;42.142;24.766;2023-07-31T07:52:35;36.30;30.00
80234;DHT22;69712;42.142;24.766;2023-07-31T07:55:01;36.30;29.30
80234;DHT22;69712;42.142;24.766;2023-07-31T07:57:27;36.10;29.70
80234;DHT22;69712;42.142;24.766;2023-07-31T07:59:53;35.70;29.70
80234;DHT22;69712;42.142;24.766;2023-07-31T08:02:19;35.20;30.00
80234;DHT22;69712;42.142;24.766;2023-07-31T08:04:45;36.20;29.70
80234;DHT22;69712;42.142;24.766;2023-07-31T08:07:11;37.50;28.50
80234;DHT22;69712;42.142;24.766;2023-07-31T08:09:38;37.30;27.70
80234;DHT22;69712;42.142;24.766;2023-07-31T08:12:04;36.50;29.20
80234;DHT22;69712;42.142;24.766;2023-07-31T08:14:30;35.60;30.30
80234;DHT22;69712;42.142;24.766;2023-07-31T08:16:56;35.30;29.90
80234;DHT22;69712;42.142;24.766;2023-07-31T08:19:22;35.50;29.90
80234;DHT22;69712;42.142;24.766;2023-07-31T08:21:48;35.40;29.90
80234;DHT22;69712;42.142;24.766;2023-07-31T08:24:14;35.60;29.80
80234;DHT22;69712;42.142;24.766;2023-07-31T08:26:39;36.60;28.70
80234;DHT22;69712;42.142;24.766;2023-07-31T08:29:05;37.00;27.80
80234;DHT22;69712;42.142;24.766;2023-07-31T08:31:31;37.50;27.50
80234;DHT22;69712;42.142;24.766;2023-07-31T08:33:57;38.00;26.80
80234;DHT22;69712;42.142;24.766;2023-07-31T08:36:22;38.00;26.60
80234;DHT22;69712;42.142;24.766;2023-07-31T08:38:48;39.20;25.90
80234;DHT22;69712;42.142;24.766;2023-07-31T08:41:15;38.40;27.40
80234;DHT22;69712;42.142;24.766;2023-07-31T08:43:45;38.00;26.80
80234;DHT22;69712;42.142;24.766;2023-07-31T08:46:11;38.30;26.40
80234;DHT22;69712;42.142;24.766;2023-07-31T08:48:37;37.20;27.60
80234;DHT22;69712;42.142;24.766;2023-07-31T08:51:04;37.50;27.20
80234;DHT22;69712;42.142;24.766;2023-07-31T08:53:30;38.50;26.70
80234;DHT22;69712;42.142;24.766;2023-07-31T08:55:58;39.90;25.80
80234;DHT22;69712;42.142;24.766;2023-07-31T08:58:25;39.00;25.30
80234;DHT22;69712;42.142;24.766;2023-07-31T09:00:53;39.20;25.40
80234;DHT22;69712;42.142;24.766;2023-07-31T09:03:22;40.80;24.20
80234;DHT22;69712;42.142;24.766;2023-07-31T09:05:48;40.20;24.10
80234;DHT22;69712;42.142;24.766;2023-07-31T09:08:18;39.10;25.00
80234;DHT22;69712;42.142;24.766;2023-07-31T09:10:45;37.80;26.20
80234;DHT22;69712;42.142;24.766;2023-07-31T09:13:14;36.90;26.90
80234;DHT22;69712;42.142;24.766;2023-07-31T09:15:44;36.30;28.20
80234;DHT22;69712;42.142;24.766;2023-07-31T09:18:10;36.10;28.30
80234;DHT22;69712;42.142;24.766;2023-07-31T09:20:36;36.30;28.10
80234;DHT22;69712;42.142;24.766;2023-07-31T09:23:10;37.00;27.60
80234;DHT22;69712;42.142;24.766;2023-07-31T09:25:37;37.50;26.10
80234;DHT22;69712;42.142;24.766;2023-07-31T09:28:05;39.60;24.90
80234;DHT22;69712;42.142;24.766;2023-07-31T09:30:50;40.40;23.60
80234;DHT22;69712;42.142;24.766;2023-07-31T09:33:16;41.80;23.00
80234;DHT22;69712;42.142;24.766;2023-07-31T09:35:43;42.20;22.60
80234;DHT22;69712;42.142;24.766;2023-07-31T09:38:11;41.70;21.90
80234;DHT22;69712;42.142;24.766;2023-07-31T09:40:42;40.90;22.70
80234;DHT22;69712;42.142;24.766;2023-07-31T09:43:10;39.90;23.60
80234;DHT22;69712;42.142;24.766;2023-07-31T09:45:38;39.20;23.50
80234;DHT22;69712;42.142;24.766;2023-07-31T09:48:07;38.20;24.80
80234;DHT22;69712;42.142;24.766;2023-07-31T09:50:39;36.70;26.50
80234;DHT22;69712;42.142;24.766;2023-07-31T09:53:06;36.60;27.20
80234;DHT22;69712;42.142;24.766;2023-07-31T09:55:32;37.40;25.60
80234;DHT22;69712;42.142;24.766;2023-07-31T09:57:58;38.50;24.60
80234;DHT22;69712;42.142;24.766;2023-07-31T10:00:24;38.80;24.20
80234;DHT22;69712;42.142;24.766;2023-07-31T10:02:53;38.50;24.10
80234;DHT22;69712;42.142;24.766;2023-07-31T10:05:20;38.20;24.30
80234;DHT22;69712;42.142;24.766;2023-07-31T10:07:53;37.40;24.50
80234;DHT22;69712;42.142;24.766;2023-07-31T10:10:21;36.50;25.40
80234;DHT22;69712;42.142;24.766;2023-07-31T10:12:49;36.30;26.00
80234;DHT22;69712;42.142;24.766;2023-07-31T10:15:16;36.40;26.30
80234;DHT22;69712;42.142;24.766;2023-07-31T10:17:42;36.40;26.10
80234;DHT22;69712;42.142;24.766;2023-07-31T10:20:08;36.50;26.40
80234;DHT22;69712;42.142;24.766;2023-07-31T10:22:35;36.70;26.10
80234;DHT22;69712;42.142;24.766;2023-07-31T10:25:02;36.90;26.10
80234;DHT22;69712;42.142;24.766;2023-07-31T10:27:28;36.60;25.90
80234;DHT22;69712;42.142;24.766;2023-07-31T10:29:57;36.60;26.40
80234;DHT22;69712;42.142;24.766;2023-07-31T10:32:25;36.80;25.90
80234;DHT22;69712;42.142;24.766;2023-07-31T10:34:52;36.90;25.70
80234;DHT22;69712;42.142;24.766;2023-07-31T10:37:29;36.70;25.70
80234;DHT22;69712;42.142;24.766;2023-07-31T10:40:05;36.40;26.10
80234;DHT22;69712;42.142;24.766;2023-07-31T10:42:32;36.60;26.30
80234;DHT22;69712;42.142;24.766;2023-07-31T10:45:03;36.50;25.50
80234;DHT22;69712;42.142;24.766;2023-07-31T10:47:29;36.20;25.60
80234;DHT22;69712;42.142;24.766;2023-07-31T10:50:16;36.10;25.80
80234;DHT22;69712;42.142;24.766;2023-07-31T10:52:46;36.30;26.30
80234;DHT22;69712;42.142;24.766;2023-07-31T10:57:46;36.00;27.00
80234;DHT22;69712;42.142;24.766;2023-07-31T11:03:05;36.10;26.50
80234;DHT22;69712;42.142;24.766;2023-07-31T11:05:52;36.20;26.50
80234;DHT22;69712;42.142;24.766;2023-07-31T11:08:24;36.60;25.70
80234;DHT22;69712;42.142;24.766;2023-07-31T11:13:33;37.80;26.00
80234;DHT22;69712;42.142;24.766;2023-07-31T11:15:59;37.70;27.10
80234;DHT22;69712;42.142;24.766;2023-07-31T11:18:28;37.90;26.50
80234;DHT22;69712;42.142;24.766;2023-07-31T11:20:54;37.90;26.20
80234;DHT22;69712;42.142;24.766;2023-07-31T11:23:21;37.00;26.80
80234;DHT22;69712;42.142;24.766;2023-07-31T11:25:47;35.70;28.50
80234;DHT22;69712;42.142;24.766;2023-07-31T11:28:14;35.20;29.70
80234;DHT22;69712;42.142;24.766;2023-07-31T11:30:41;34.50;30.40
80234;DHT22;69712;42.142;24.766;2023-07-31T11:33:08;34.10;30.90
80234;DHT22;69712;42.142;24.766;2023-07-31T11:35:40;33.90;32.10
80234;DHT22;69712;42.142;24.766;2023-07-31T11:38:07;33.50;31.10
80234;DHT22;69712;42.142;24.766;2023-07-31T11:40:44;33.40;31.10
80234;DHT22;69712;42.142;24.766;2023-07-31T11:43:10;33.80;31.20
80234;DHT22;69712;42.142;24.766;2023-07-31T11:45:37;35.30;29.70
80234;DHT22;69712;42.142;24.766;2023-07-31T11:48:05;37.00;28.10
80234;DHT22;69712;42.142;24.766;2023-07-31T11:50:33;38.20;26.40
80234;DHT22;69712;42.142;24.766;2023-07-31T11:53:06;39.20;25.20
80234;DHT22;69712;42.142;24.766;2023-07-31T11:55:33;39.60;24.60
80234;DHT22;69712;42.142;24.766;2023-07-31T11:57:59;39.40;24.40
80234;DHT22;69712;42.142;24.766;2023-07-31T12:00:26;39.30;24.80
80234;DHT22;69712;42.142;24.766;2023-07-31T12:02:53;40.10;24.00
80234;DHT22;69712;42.142;24.766;2023-07-31T12:05:19;40.20;23.90
80234;DHT22;69712;42.142;24.766;2023-07-31T12:07:51;39.80;24.20
80234;DHT22;69712;42.142;24.766;2023-07-31T12:10:32;39.10;24.80
80234;DHT22;69712;42.142;24.766;2023-07-31T12:17:59;36.60;27.30
80234;DHT22;69712;42.142;24.766;2023-07-31T12:20:25;36.30;27.90
80234;DHT22;69712;42.142;24.766;2023-07-31T12:22:51;35.60;28.60
80234;DHT22;69712;42.142;24.766;2023-07-31T12:25:17;35.40;28.80
80234;DHT22;69712;42.142;24.766;2023-07-31T12:27:45;34.90;29.20
80234;DHT22;69712;42.142;24.766;2023-07-31T12:30:34;35.00;29.50
80234;DHT22;69712;42.142;24.766;2023-07-31T12:33:12;34.80;29.10
80234;DHT22;69712;42.142;24.766;2023-07-31T12:35:41;34.90;29.30
80234;DHT22;69712;42.142;24.766;2023-07-31T12:38:07;34.90;29.50
80234;DHT22;69712;42.142;24.766;2023-07-31T12:40:33;35.10;29.10
80234;DHT22;69712;42.142;24.766;2023-07-31T12:43:01;35.70;27.90
80234;DHT22;69712;42.142;24.766;2023-07-31T12:45:28;37.00;25.80
80234;DHT22;69712;42.142;24.766;2023-07-31T12:47:53;38.30;25.00
80234;DHT22;69712;42.142;24.766;2023-07-31T12:50:19;36.90;26.00
80234;DHT22;69712;42.142;24.766;2023-07-31T12:52:45;36.40;27.20
80234;DHT22;69712;42.142;24.766;2023-07-31T12:55:11;36.10;27.00
80234;DHT22;69712;42.142;24.766;2023-07-31T12:57:36;37.30;26.20
80234;DHT22;69712;42.142;24.766;2023-07-31T13:00:03;38.70;24.70
80234;DHT22;69712;42.142;24.766;2023-07-31T13:02:29;37.80;24.40
80234;DHT22;69712;42.142;24.766;2023-07-31T13:04:54;37.30;25.10
80234;DHT22;69712;42.142;24.766;2023-07-31T13:07:39;37.50;25.50
80234;DHT22;69712;42.142;24.766;2023-07-31T13:10:06;36.20;28.70
80234;DHT22;69712;42.142;24.766;2023-07-31T13:12:32;35.40;29.60
80234;DHT22;69712;42.142;24.766;2023-07-31T13:14:58;33.80;32.00
80234;DHT22;69712;42.142;24.766;2023-07-31T13:17:23;33.40;31.90
80234;DHT22;69712;42.142;24.766;2023-07-31T13:19:49;32.50;34.30
80234;DHT22;69712;42.142;24.766;2023-07-31T13:22:15;32.60;34.50
80234;DHT22;69712;42.142;24.766;2023-07-31T13:24:41;32.60;34.70
80234;DHT22;69712;42.142;24.766;2023-07-31T13:27:06;32.80;34.10
80234;DHT22;69712;42.142;24.766;2023-07-31T13:29:32;32.60;33.90
80234;DHT22;69712;42.142;24.766;2023-07-31T13:31:58;32.50;34.20
80234;DHT22;69712;42.142;24.766;2023-07-31T13:34:23;32.80;34.00
80234;DHT22;69712;42.142;24.766;2023-07-31T13:36:49;33.60;32.40
80234;DHT22;69712;42.142;24.766;2023-07-31T13:39:15;33.50;32.80
80234;DHT22;69712;42.142;24.766;2023-07-31T13:41:41;33.50;32.60
80234;DHT22;69712;42.142;24.766;2023-07-31T13:44:07;33.70;32.50
80234;DHT22;69712;42.142;24.766;2023-07-31T13:46:32;34.20;31.20
80234;DHT22;69712;42.142;24.766;2023-07-31T13:48:59;34.70;30.60
80234;DHT22;69712;42.142;24.766;2023-07-31T13:51:25;34.80;30.00
80234;DHT22;69712;42.142;24.766;2023-07-31T13:53:52;33.90;31.70
80234;DHT22;69712;42.142;24.766;2023-07-31T13:56:18;34.10;31.20
80234;DHT22;69712;42.142;24.766;2023-07-31T13:58:44;33.50;32.00
80234;DHT22;69712;42.142;24.766;2023-07-31T14:01:09;33.10;32.20
80234;DHT22;69712;42.142;24.766;2023-07-31T14:03:35;33.00;32.40
80234;DHT22;69712;42.142;24.766;2023-07-31T14:06:01;32.70;33.20
80234;DHT22;69712;42.142;24.766;2023-07-31T14:08:27;32.00;33.80
80234;DHT22;69712;42.142;24.766;2023-07-31T14:10:52;32.00;34.10
80234;DHT22;69712;42.142;24.766;2023-07-31T14:13:18;31.80;34.40
80234;DHT22;69712;42.142;24.766;2023-07-31T14:15:44;31.80;34.60
80234;DHT22;69712;42.142;24.766;2023-07-31T14:18:10;31.40;35.80
80234;DHT22;69712;42.142;24.766;2023-07-31T14:20:35;31.30;36.30
80234;DHT22;69712;42.142;24.766;2023-07-31T14:23:02;31.20;37.00
80234;DHT22;69712;42.142;24.766;2023-07-31T14:25:28;31.10;37.60
80234;DHT22;69712;42.142;24.766;2023-07-31T14:27:54;31.10;37.90
80234;DHT22;69712;42.142;24.766;2023-07-31T14:30:20;31.20;37.70
80234;DHT22;69712;42.142;24.766;2023-07-31T14:32:46;31.40;35.50
80234;DHT22;69712;42.142;24.766;2023-07-31T14:35:12;31.50;35.80
80234;DHT22;69712;42.142;24.766;2023-07-31T14:37:43;31.50;35.90
80234;DHT22;69712;42.142;24.766;2023-07-31T14:40:11;31.40;36.30
80234;DHT22;69712;42.142;24.766;2023-07-31T14:42:37;31.30;37.20
80234;DHT22;69712;42.142;24.766;2023-07-31T14:45:04;31.20;36.20
80234;DHT22;69712;42.142;24.766;2023-07-31T14:47:30;31.20;36.10
80234;DHT22;69712;42.142;24.766;2023-07-31T14:49:59;31.10;36.10
80234;DHT22;69712;42.142;24.766;2023-07-31T14:52:25;31.10;36.10
80234;DHT22;69712;42.142;24.766;2023-07-31T14:54:51;31.00;37.60
80234;DHT22;69712;42.142;24.766;2023-07-31T14:57:17;31.10;37.10
80234;DHT22;69712;42.142;24.766;2023-07-31T14:59:43;31.20;37.80
80234;DHT22;69712;42.142;24.766;2023-07-31T15:02:09;31.10;37.60
80234;DHT22;69712;42.142;24.766;2023-07-31T15:04:36;30.80;37.80
80234;DHT22;69712;42.142;24.766;2023-07-31T15:07:02;30.60;38.10
80234;DHT22;69712;42.142;24.766;2023-07-31T15:09:27;30.70;38.00
80234;DHT22;69712;42.142;24.766;2023-07-31T15:11:53;30.50;38.20
80234;DHT22;69712;42.142;24.766;2023-07-31T15:14:19;30.50;38.80
80234;DHT22;69712;42.142;24.766;2023-07-31T15:16:45;30.40;38.90
80234;DHT22;69712;42.142;24.766;2023-07-31T15:19:11;30.40;39.10
80234;DHT22;69712;42.142;24.766;2023-07-31T15:21:37;30.30;39.30
80234;DHT22;69712;42.142;24.766;2023-07-31T15:24:03;30.50;38.80
80234;DHT22;69712;42.142;24.766;2023-07-31T15:26:29;30.30;39.00
80234;DHT22;69712;42.142;24.766;2023-07-31T15:29:03;30.30;38.60
80234;DHT22;69712;42.142;24.766;2023-07-31T15:31:38;30.10;39.00
80234;DHT22;69712;42.142;24.766;2023-07-31T15:34:04;30.10;38.90
80234;DHT22;69712;42.142;24.766;2023-07-31T15:36:29;30.00;39.20